sensor_id;sensor_type;location;lat;lon;timestamp;P1;durP1;ratioP1;P2;durP2;ratioP2
69750;SDS011;57335;52.288;6.056;2024-03-07T00:01:39;66.85;;;14.02;;
69750;SDS011;57335;52.288;6.056;2024-03-07T00:04:06;63.80;;;12.95;;
69750;SDS011;57335;52.288;6.056;2024-03-07T00:06:32;40.78;;;11.65;;
69750;SDS011;57335;52.288;6.056;2024-03-07T00:08:59;80.90;;;12.23;;
69750;SDS011;57335;52.288;6.056;2024-03-07T00:11:26;236.77;;;19.90;;
69750;SDS011;57335;52.288;6.056;2024-03-07T00:13:52;87.47;;;14.20;;
69750;SDS011;57335;52.288;6.056;2024-03-07T00:16:19;38.20;;;12.05;;
69750;SDS011;57335;52.288;6.056;2024-03-07T00:18:46;45.45;;;11.32;;
69750;SDS011;57335;52.288;6.056;2024-03-07T00:21:13;30.23;;;11.20;;
69750;SDS011;57335;52.288;6.056;2024-03-07T00:23:39;35.50;;;10.85;;
69750;SDS011;57335;52.288;6.056;2024-03-07T00:26:06;40.17;;;12.20;;
69750;SDS011;57335;52.288;6.056;2024-03-07T00:28:34;94.80;;;14.90;;
69750;SDS011;57335;52.288;6.056;2024-03-07T00:31:05;119.47;;;15.40;;
69750;SDS011;57335;52.288;6.056;2024-03-07T00:33:33;105.55;;;15.93;;
69750;SDS011;57335;52.288;6.056;2024-03-07T00:36:20;122.90;;;16.30;;
69750;SDS011;57335;52.288;6.056;2024-03-07T00:38:47;96.35;;;15.32;;
69750;SDS011;57335;52.288;6.056;2024-03-07T00:41:14;135.23;;;16.70;;
69750;SDS011;57335;52.288;6.056;2024-03-07T00:43:43;135.25;;;16.83;;
69750;SDS011;57335;52.288;6.056;2024-03-07T00:46:09;139.82;;;16.67;;
69750;SDS011;57335;52.288;6.056;2024-03-07T00:48:37;185.80;;;18.88;;
69750;SDS011;57335;52.288;6.056;2024-03-07T00:51:04;109.38;;;15.63;;
69750;SDS011;57335;52.288;6.056;2024-03-07T00:53:30;154.27;;;18.42;;
69750;SDS011;57335;52.288;6.056;2024-03-07T00:55:57;172.77;;;19.95;;
69750;SDS011;57335;52.288;6.056;2024-03-07T00:58:24;194.18;;;19.38;;
69750;SDS011;57335;52.288;6.056;2024-03-07T01:03:17;90.20;;;13.75;;
69750;SDS011;57335;52.288;6.056;2024-03-07T01:08:10;43.08;;;13.88;;
69750;SDS011;57335;52.288;6.056;2024-03-07T01:10:37;41.20;;;14.50;;
69750;SDS011;57335;52.288;6.056;2024-03-07T01:13:04;50.70;;;14.25;;
69750;SDS011;57335;52.288;6.056;2024-03-07T01:15:32;52.35;;;16.27;;
69750;SDS011;57335;52.288;6.056;2024-03-07T01:17:59;49.85;;;16.23;;
69750;SDS011;57335;52.288;6.056;2024-03-07T01:20:25;51.60;;;16.10;;
69750;SDS011;57335;52.288;6.056;2024-03-07T01:22:52;59.35;;;18.20;;
69750;SDS011;57335;52.288;6.056;2024-03-07T01:25:18;54.65;;;17.48;;
69750;SDS011;57335;52.288;6.056;2024-03-07T01:27:45;60.50;;;18.05;;
69750;SDS011;57335;52.288;6.056;2024-03-07T01:30:13;52.08;;;16.10;;
69750;SDS011;57335;52.288;6.056;2024-03-07T01:32:40;51.38;;;16.73;;
69750;SDS011;57335;52.288;6.056;2024-03-07T01:35:07;56.50;;;16.17;;
69750;SDS011;57335;52.288;6.056;2024-03-07T01:37:34;57.25;;;16.27;;
69750;SDS011;57335;52.288;6.056;2024-03-07T01:40:02;58.40;;;16.83;;
69750;SDS011;57335;52.288;6.056;2024-03-07T01:42:31;48.88;;;15.48;;
69750;SDS011;57335;52.288;6.056;2024-03-07T01:44:58;51.47;;;15.70;;
69750;SDS011;57335;52.288;6.056;2024-03-07T01:47:25;47.70;;;15.57;;
69750;SDS011;57335;52.288;6.056;2024-03-07T01:49:52;53.35;;;16.77;;
69750;SDS011;57335;52.288;6.056;2024-03-07T01:52:18;54.20;;;18.75;;
69750;SDS011;57335;52.288;6.056;2024-03-07T01:54:46;64.25;;;17.17;;
69750;SDS011;57335;52.288;6.056;2024-03-07T01:57:14;59.65;;;18.83;;
69750;SDS011;57335;52.288;6.056;2024-03-07T01:59:43;57.28;;;16.92;;
69750;SDS011;57335;52.288;6.056;2024-03-07T02:02:10;56.65;;;17.42;;
69750;SDS011;57335;52.288;6.056;2024-03-07T02:04:37;53.47;;;18.75;;
69750;SDS011;57335;52.288;6.056;2024-03-07T02:07:03;50.15;;;17.17;;
69750;SDS011;57335;52.288;6.056;2024-03-07T02:09:30;65.18;;;18.75;;
69750;SDS011;57335;52.288;6.056;2024-03-07T02:11:57;58.80;;;18.15;;
69750;SDS011;57335;52.288;6.056;2024-03-07T02:14:23;56.72;;;18.83;;
69750;SDS011;57335;52.288;6.056;2024-03-07T02:16:50;47.88;;;16.08;;
69750;SDS011;57335;52.288;6.056;2024-03-07T02:19:16;66.60;;;18.90;;
69750;SDS011;57335;52.288;6.056;2024-03-07T02:21:44;63.55;;;18.15;;
69750;SDS011;57335;52.288;6.056;2024-03-07T02:26:37;55.45;;;16.58;;
69750;SDS011;57335;52.288;6.056;2024-03-07T02:29:05;55.65;;;17.35;;
69750;SDS011;57335;52.288;6.056;2024-03-07T02:31:32;62.28;;;18.55;;
69750;SDS011;57335;52.288;6.056;2024-03-07T02:34:03;58.10;;;16.70;;
69750;SDS011;57335;52.288;6.056;2024-03-07T02:36:30;62.95;;;18.30;;
69750;SDS011;57335;52.288;6.056;2024-03-07T02:38:57;54.80;;;17.67;;
69750;SDS011;57335;52.288;6.056;2024-03-07T02:41:24;58.95;;;17.30;;
69750;SDS011;57335;52.288;6.056;2024-03-07T02:43:51;56.83;;;16.83;;
69750;SDS011;57335;52.288;6.056;2024-03-07T02:46:18;60.10;;;15.88;;
69750;SDS011;57335;52.288;6.056;2024-03-07T02:48:45;61.53;;;16.52;;
69750;SDS011;57335;52.288;6.056;2024-03-07T02:51:12;48.10;;;14.65;;
69750;SDS011;57335;52.288;6.056;2024-03-07T02:53:39;57.22;;;16.42;;
69750;SDS011;57335;52.288;6.056;2024-03-07T02:56:05;54.65;;;15.30;;
69750;SDS011;57335;52.288;6.056;2024-03-07T02:58:35;51.25;;;15.15;;
69750;SDS011;57335;52.288;6.056;2024-03-07T03:01:02;53.60;;;15.35;;
69750;SDS011;57335;52.288;6.056;2024-03-07T03:03:29;61.65;;;15.65;;
69750;SDS011;57335;52.288;6.056;2024-03-07T03:05:59;47.53;;;15.63;;
69750;SDS011;57335;52.288;6.056;2024-03-07T03:08:26;59.95;;;18.08;;
69750;SDS011;57335;52.288;6.056;2024-03-07T03:10:55;49.47;;;15.98;;
69750;SDS011;57335;52.288;6.056;2024-03-07T03:13:23;68.47;;;18.75;;
69750;SDS011;57335;52.288;6.056;2024-03-07T03:15:54;56.97;;;18.20;;
69750;SDS011;57335;52.288;6.056;2024-03-07T03:18:22;61.38;;;19.08;;
69750;SDS011;57335;52.288;6.056;2024-03-07T03:20:50;64.75;;;19.63;;
69750;SDS011;57335;52.288;6.056;2024-03-07T03:23:17;68.75;;;19.08;;
69750;SDS011;57335;52.288;6.056;2024-03-07T03:25:47;59.47;;;19.17;;
69750;SDS011;57335;52.288;6.056;2024-03-07T03:28:17;56.95;;;17.35;;
69750;SDS011;57335;52.288;6.056;2024-03-07T03:30:46;58.75;;;17.48;;
69750;SDS011;57335;52.288;6.056;2024-03-07T03:33:13;60.53;;;17.15;;
69750;SDS011;57335;52.288;6.056;2024-03-07T03:35:41;49.85;;;16.35;;
69750;SDS011;57335;52.288;6.056;2024-03-07T03:38:08;52.70;;;16.95;;
69750;SDS011;57335;52.288;6.056;2024-03-07T03:40:35;58.25;;;17.55;;
69750;SDS011;57335;52.288;6.056;2024-03-07T03:43:02;58.20;;;17.15;;
69750;SDS011;57335;52.288;6.056;2024-03-07T03:45:29;54.63;;;18.67;;
69750;SDS011;57335;52.288;6.056;2024-03-07T03:47:55;68.13;;;20.65;;
69750;SDS011;57335;52.288;6.056;2024-03-07T03:50:22;74.90;;;21.08;;
69750;SDS011;57335;52.288;6.056;2024-03-07T03:52:52;64.55;;;20.02;;
69750;SDS011;57335;52.288;6.056;2024-03-07T03:55:19;60.53;;;21.33;;
69750;SDS011;57335;52.288;6.056;2024-03-07T03:57:47;65.35;;;19.92;;
69750;SDS011;57335;52.288;6.056;2024-03-07T04:00:14;60.65;;;18.20;;
69750;SDS011;57335;52.288;6.056;2024-03-07T04:02:41;64.05;;;19.13;;
69750;SDS011;57335;52.288;6.056;2024-03-07T04:05:09;66.25;;;18.58;;
69750;SDS011;57335;52.288;6.056;2024-03-07T04:07:37;57.58;;;18.40;;
69750;SDS011;57335;52.288;6.056;2024-03-07T04:10:04;60.88;;;19.95;;
69750;SDS011;57335;52.288;6.056;2024-03-07T04:12:35;68.90;;;20.13;;
69750;SDS011;57335;52.288;6.056;2024-03-07T04:15:07;62.45;;;20.85;;
69750;SDS011;57335;52.288;6.056;2024-03-07T04:17:35;69.72;;;19.27;;
69750;SDS011;57335;52.288;6.056;2024-03-07T04:20:02;89.90;;;22.33;;
69750;SDS011;57335;52.288;6.056;2024-03-07T04:22:33;60.17;;;18.48;;
69750;SDS011;57335;52.288;6.056;2024-03-07T04:25:01;69.68;;;21.02;;
69750;SDS011;57335;52.288;6.056;2024-03-07T04:27:28;65.40;;;19.60;;
69750;SDS011;57335;52.288;6.056;2024-03-07T04:29:55;49.72;;;16.08;;
69750;SDS011;57335;52.288;6.056;2024-03-07T04:32:22;46.92;;;15.98;;
69750;SDS011;57335;52.288;6.056;2024-03-07T04:34:49;49.88;;;16.02;;
69750;SDS011;57335;52.288;6.056;2024-03-07T04:37:16;43.17;;;15.70;;
69750;SDS011;57335;52.288;6.056;2024-03-07T04:39:42;48.17;;;14.80;;
69750;SDS011;57335;52.288;6.056;2024-03-07T04:42:09;48.60;;;16.13;;
69750;SDS011;57335;52.288;6.056;2024-03-07T04:44:36;45.35;;;15.23;;
69750;SDS011;57335;52.288;6.056;2024-03-07T04:47:03;53.50;;;16.83;;
69750;SDS011;57335;52.288;6.056;2024-03-07T04:49:31;44.92;;;15.65;;
69750;SDS011;57335;52.288;6.056;2024-03-07T04:51:59;49.42;;;17.13;;
69750;SDS011;57335;52.288;6.056;2024-03-07T04:54:27;52.78;;;16.13;;
69750;SDS011;57335;52.288;6.056;2024-03-07T04:56:54;47.47;;;16.77;;
69750;SDS011;57335;52.288;6.056;2024-03-07T04:59:21;49.33;;;16.00;;
69750;SDS011;57335;52.288;6.056;2024-03-07T05:01:49;48.90;;;18.05;;
69750;SDS011;57335;52.288;6.056;2024-03-07T05:04:17;48.90;;;16.23;;
69750;SDS011;57335;52.288;6.056;2024-03-07T05:06:44;54.63;;;18.50;;
69750;SDS011;57335;52.288;6.056;2024-03-07T05:09:14;50.22;;;18.15;;
69750;SDS011;57335;52.288;6.056;2024-03-07T05:11:52;50.22;;;17.73;;
69750;SDS011;57335;52.288;6.056;2024-03-07T05:14:19;48.95;;;16.92;;
69750;SDS011;57335;52.288;6.056;2024-03-07T05:16:46;56.28;;;17.55;;
69750;SDS011;57335;52.288;6.056;2024-03-07T05:19:32;57.83;;;18.27;;
69750;SDS011;57335;52.288;6.056;2024-03-07T05:21:59;62.85;;;20.08;;
69750;SDS011;57335;52.288;6.056;2024-03-07T05:24:26;64.47;;;19.13;;
69750;SDS011;57335;52.288;6.056;2024-03-07T05:26:53;60.97;;;19.15;;
69750;SDS011;57335;52.288;6.056;2024-03-07T05:29:20;61.05;;;18.95;;
69750;SDS011;57335;52.288;6.056;2024-03-07T05:31:47;56.95;;;18.65;;
69750;SDS011;57335;52.288;6.056;2024-03-07T05:34:15;55.70;;;18.50;;
69750;SDS011;57335;52.288;6.056;2024-03-07T05:36:45;57.78;;;19.08;;
69750;SDS011;57335;52.288;6.056;2024-03-07T05:39:14;54.90;;;19.05;;
69750;SDS011;57335;52.288;6.056;2024-03-07T05:41:42;57.47;;;18.00;;
69750;SDS011;57335;52.288;6.056;2024-03-07T05:44:12;50.13;;;15.98;;
69750;SDS011;57335;52.288;6.056;2024-03-07T05:46:39;51.75;;;17.30;;
69750;SDS011;57335;52.288;6.056;2024-03-07T05:49:15;50.28;;;16.27;;
69750;SDS011;57335;52.288;6.056;2024-03-07T05:51:43;45.45;;;16.15;;
69750;SDS011;57335;52.288;6.056;2024-03-07T05:54:11;45.00;;;16.13;;
69750;SDS011;57335;52.288;6.056;2024-03-07T05:56:39;47.28;;;16.63;;
69750;SDS011;57335;52.288;6.056;2024-03-07T05:59:07;55.72;;;17.88;;
69750;SDS011;57335;52.288;6.056;2024-03-07T06:01:38;45.78;;;16.48;;
69750;SDS011;57335;52.288;6.056;2024-03-07T06:04:05;48.15;;;16.33;;
69750;SDS011;57335;52.288;6.056;2024-03-07T06:06:33;47.92;;;16.80;;
69750;SDS011;57335;52.288;6.056;2024-03-07T06:09:01;43.63;;;15.63;;
69750;SDS011;57335;52.288;6.056;2024-03-07T06:11:38;43.95;;;15.73;;
69750;SDS011;57335;52.288;6.056;2024-03-07T06:14:06;45.00;;;16.40;;
69750;SDS011;57335;52.288;6.056;2024-03-07T06:16:35;53.92;;;17.42;;
69750;SDS011;57335;52.288;6.056;2024-03-07T06:19:03;45.55;;;16.25;;
69750;SDS011;57335;52.288;6.056;2024-03-07T06:21:33;44.50;;;14.85;;
69750;SDS011;57335;52.288;6.056;2024-03-07T06:24:01;40.50;;;15.25;;
69750;SDS011;57335;52.288;6.056;2024-03-07T06:26:32;46.33;;;17.10;;
69750;SDS011;57335;52.288;6.056;2024-03-07T06:29:26;46.03;;;14.73;;
69750;SDS011;57335;52.288;6.056;2024-03-07T06:31:54;40.47;;;14.93;;
69750;SDS011;57335;52.288;6.056;2024-03-07T06:34:21;33.03;;;10.85;;
69750;SDS011;57335;52.288;6.056;2024-03-07T06:36:47;35.90;;;13.15;;
69750;SDS011;57335;52.288;6.056;2024-03-07T06:39:14;37.17;;;13.07;;
69750;SDS011;57335;52.288;6.056;2024-03-07T06:41:40;42.22;;;14.35;;
69750;SDS011;57335;52.288;6.056;2024-03-07T06:44:07;35.55;;;13.98;;
69750;SDS011;57335;52.288;6.056;2024-03-07T06:46:36;27.30;;;10.73;;
69750;SDS011;57335;52.288;6.056;2024-03-07T06:49:03;35.72;;;13.45;;
69750;SDS011;57335;52.288;6.056;2024-03-07T06:51:32;31.42;;;12.70;;
69750;SDS011;57335;52.288;6.056;2024-03-07T06:53:59;33.08;;;13.35;;
69750;SDS011;57335;52.288;6.056;2024-03-07T06:56:26;30.73;;;12.20;;
69750;SDS011;57335;52.288;6.056;2024-03-07T06:58:53;30.77;;;12.68;;
69750;SDS011;57335;52.288;6.056;2024-03-07T07:01:19;25.58;;;10.65;;
69750;SDS011;57335;52.288;6.056;2024-03-07T07:03:46;28.67;;;12.13;;
69750;SDS011;57335;52.288;6.056;2024-03-07T07:06:15;30.90;;;12.07;;
69750;SDS011;57335;52.288;6.056;2024-03-07T07:08:42;25.30;;;11.23;;
69750;SDS011;57335;52.288;6.056;2024-03-07T07:11:11;25.25;;;10.80;;
69750;SDS011;57335;52.288;6.056;2024-03-07T07:13:38;24.83;;;10.35;;
69750;SDS011;57335;52.288;6.056;2024-03-07T07:16:05;24.67;;;11.20;;
69750;SDS011;57335;52.288;6.056;2024-03-07T07:18:32;28.17;;;11.70;;
69750;SDS011;57335;52.288;6.056;2024-03-07T07:20:59;27.25;;;11.30;;
69750;SDS011;57335;52.288;6.056;2024-03-07T07:23:28;28.15;;;12.10;;
69750;SDS011;57335;52.288;6.056;2024-03-07T07:25:55;23.83;;;10.32;;
69750;SDS011;57335;52.288;6.056;2024-03-07T07:28:21;23.25;;;9.38;;
69750;SDS011;57335;52.288;6.056;2024-03-07T07:30:48;24.52;;;11.45;;
69750;SDS011;57335;52.288;6.056;2024-03-07T07:33:15;22.50;;;9.75;;
69750;SDS011;57335;52.288;6.056;2024-03-07T07:35:42;24.25;;;10.40;;
69750;SDS011;57335;52.288;6.056;2024-03-07T07:38:09;22.90;;;10.10;;
69750;SDS011;57335;52.288;6.056;2024-03-07T07:40:37;24.05;;;10.73;;
69750;SDS011;57335;52.288;6.056;2024-03-07T07:43:05;22.30;;;10.98;;
69750;SDS011;57335;52.288;6.056;2024-03-07T07:45:32;21.77;;;9.75;;
69750;SDS011;57335;52.288;6.056;2024-03-07T07:48:02;24.75;;;11.50;;
69750;SDS011;57335;52.288;6.056;2024-03-07T07:50:29;22.33;;;9.77;;
69750;SDS011;57335;52.288;6.056;2024-03-07T07:52:57;24.30;;;10.85;;
69750;SDS011;57335;52.288;6.056;2024-03-07T07:55:24;18.92;;;9.05;;
69750;SDS011;57335;52.288;6.056;2024-03-07T07:57:59;25.10;;;10.25;;
69750;SDS011;57335;52.288;6.056;2024-03-07T08:00:27;21.15;;;8.20;;
69750;SDS011;57335;52.288;6.056;2024-03-07T08:03:05;21.60;;;10.63;;
69750;SDS011;57335;52.288;6.056;2024-03-07T08:05:36;22.70;;;10.60;;
69750;SDS011;57335;52.288;6.056;2024-03-07T08:08:07;22.42;;;9.73;;
69750;SDS011;57335;52.288;6.056;2024-03-07T08:10:35;19.90;;;9.57;;
69750;SDS011;57335;52.288;6.056;2024-03-07T08:13:07;23.30;;;9.82;;
69750;SDS011;57335;52.288;6.056;2024-03-07T08:15:34;24.42;;;11.00;;
69750;SDS011;57335;52.288;6.056;2024-03-07T08:18:01;20.85;;;10.30;;
69750;SDS011;57335;52.288;6.056;2024-03-07T08:20:28;19.30;;;9.35;;
69750;SDS011;57335;52.288;6.056;2024-03-07T08:22:56;18.88;;;9.45;;
69750;SDS011;57335;52.288;6.056;2024-03-07T08:25:26;20.63;;;9.45;;
69750;SDS011;57335;52.288;6.056;2024-03-07T08:27:56;20.27;;;9.75;;
69750;SDS011;57335;52.288;6.056;2024-03-07T08:30:24;21.42;;;10.07;;
69750;SDS011;57335;52.288;6.056;2024-03-07T08:32:51;18.08;;;8.88;;
69750;SDS011;57335;52.288;6.056;2024-03-07T08:35:20;18.85;;;8.95;;
69750;SDS011;57335;52.288;6.056;2024-03-07T08:37:49;20.58;;;9.40;;
69750;SDS011;57335;52.288;6.056;2024-03-07T08:40:27;22.23;;;8.80;;
69750;SDS011;57335;52.288;6.056;2024-03-07T08:45:26;20.88;;;9.40;;
69750;SDS011;57335;52.288;6.056;2024-03-07T08:47:54;19.45;;;8.25;;
69750;SDS011;57335;52.288;6.056;2024-03-07T08:50:25;20.58;;;8.93;;
69750;SDS011;57335;52.288;6.056;2024-03-07T08:52:53;19.73;;;9.60;;
69750;SDS011;57335;52.288;6.056;2024-03-07T08:55:20;17.55;;;8.48;;
69750;SDS011;57335;52.288;6.056;2024-03-07T08:57:49;19.05;;;9.43;;
69750;SDS011;57335;52.288;6.056;2024-03-07T09:00:16;20.60;;;9.10;;
69750;SDS011;57335;52.288;6.056;2024-03-07T09:05:23;20.23;;;9.35;;
69750;SDS011;57335;52.288;6.056;2024-03-07T09:07:50;19.75;;;9.55;;
69750;SDS011;57335;52.288;6.056;2024-03-07T09:10:18;18.17;;;8.82;;
69750;SDS011;57335;52.288;6.056;2024-03-07T09:12:45;20.30;;;9.55;;
69750;SDS011;57335;52.288;6.056;2024-03-07T09:15:16;18.17;;;8.48;;
69750;SDS011;57335;52.288;6.056;2024-03-07T09:17:44;19.48;;;8.30;;
69750;SDS011;57335;52.288;6.056;2024-03-07T09:20:11;18.35;;;7.60;;
69750;SDS011;57335;52.288;6.056;2024-03-07T09:22:41;14.55;;;7.18;;
69750;SDS011;57335;52.288;6.056;2024-03-07T09:25:08;18.15;;;8.55;;
69750;SDS011;57335;52.288;6.056;2024-03-07T09:27:37;19.75;;;8.25;;
69750;SDS011;57335;52.288;6.056;2024-03-07T09:30:04;18.85;;;8.98;;
69750;SDS011;57335;52.288;6.056;2024-03-07T09:32:31;18.42;;;8.77;;
69750;SDS011;57335;52.288;6.056;2024-03-07T09:35:00;18.08;;;8.88;;
69750;SDS011;57335;52.288;6.056;2024-03-07T09:37:27;18.38;;;7.93;;
69750;SDS011;57335;52.288;6.056;2024-03-07T09:39:54;16.48;;;7.30;;
69750;SDS011;57335;52.288;6.056;2024-03-07T09:42:20;19.98;;;8.85;;
69750;SDS011;57335;52.288;6.056;2024-03-07T09:44:50;17.15;;;7.25;;
69750;SDS011;57335;52.288;6.056;2024-03-07T09:47:18;13.45;;;6.22;;
69750;SDS011;57335;52.288;6.056;2024-03-07T09:49:46;18.10;;;7.18;;
69750;SDS011;57335;52.288;6.056;2024-03-07T09:52:13;17.90;;;6.93;;
69750;SDS011;57335;52.288;6.056;2024-03-07T09:54:41;16.38;;;6.88;;
69750;SDS011;57335;52.288;6.056;2024-03-07T09:57:08;14.88;;;6.13;;
69750;SDS011;57335;52.288;6.056;2024-03-07T09:59:37;16.50;;;6.60;;
69750;SDS011;57335;52.288;6.056;2024-03-07T10:02:08;15.98;;;5.65;;
69750;SDS011;57335;52.288;6.056;2024-03-07T10:07:07;15.05;;;6.28;;
69750;SDS011;57335;52.288;6.056;2024-03-07T10:09:38;17.33;;;6.47;;
69750;SDS011;57335;52.288;6.056;2024-03-07T10:12:06;17.08;;;7.20;;
69750;SDS011;57335;52.288;6.056;2024-03-07T10:14:36;16.48;;;7.00;;
69750;SDS011;57335;52.288;6.056;2024-03-07T10:17:05;17.40;;;7.38;;
69750;SDS011;57335;52.288;6.056;2024-03-07T10:19:32;16.25;;;6.00;;
69750;SDS011;57335;52.288;6.056;2024-03-07T10:21:59;15.75;;;5.72;;
69750;SDS011;57335;52.288;6.056;2024-03-07T10:24:28;15.88;;;7.25;;
69750;SDS011;57335;52.288;6.056;2024-03-07T10:26:54;19.67;;;6.93;;
69750;SDS011;57335;52.288;6.056;2024-03-07T10:29:24;15.20;;;5.22;;
69750;SDS011;57335;52.288;6.056;2024-03-07T10:31:51;14.82;;;6.35;;
69750;SDS011;57335;52.288;6.056;2024-03-07T10:34:33;14.02;;;5.22;;
69750;SDS011;57335;52.288;6.056;2024-03-07T10:37:00;16.60;;;6.75;;
69750;SDS011;57335;52.288;6.056;2024-03-07T10:39:30;16.80;;;6.53;;
69750;SDS011;57335;52.288;6.056;2024-03-07T10:41:57;19.20;;;7.30;;
69750;SDS011;57335;52.288;6.056;2024-03-07T10:44:32;15.82;;;6.40;;
69750;SDS011;57335;52.288;6.056;2024-03-07T10:47:08;15.43;;;7.00;;
69750;SDS011;57335;52.288;6.056;2024-03-07T10:49:37;19.52;;;7.50;;
69750;SDS011;57335;52.288;6.056;2024-03-07T10:52:16;17.25;;;5.57;;
69750;SDS011;57335;52.288;6.056;2024-03-07T10:55:00;14.02;;;5.50;;
69750;SDS011;57335;52.288;6.056;2024-03-07T10:57:49;19.42;;;8.40;;
69750;SDS011;57335;52.288;6.056;2024-03-07T11:00:17;19.35;;;7.75;;
69750;SDS011;57335;52.288;6.056;2024-03-07T11:02:58;17.45;;;7.38;;
69750;SDS011;57335;52.288;6.056;2024-03-07T11:05:25;20.27;;;8.68;;
69750;SDS011;57335;52.288;6.056;2024-03-07T11:07:59;18.80;;;8.23;;
69750;SDS011;57335;52.288;6.056;2024-03-07T11:10:31;21.58;;;8.65;;
69750;SDS011;57335;52.288;6.056;2024-03-07T11:12:58;19.95;;;7.70;;
69750;SDS011;57335;52.288;6.056;2024-03-07T11:15:26;17.83;;;7.63;;
69750;SDS011;57335;52.288;6.056;2024-03-07T11:17:54;20.60;;;8.98;;
69750;SDS011;57335;52.288;6.056;2024-03-07T11:20:42;19.67;;;7.65;;
69750;SDS011;57335;52.288;6.056;2024-03-07T11:23:25;15.13;;;5.25;;
69750;SDS011;57335;52.288;6.056;2024-03-07T11:28:40;18.55;;;7.60;;
69750;SDS011;57335;52.288;6.056;2024-03-07T11:31:15;18.27;;;7.85;;
69750;SDS011;57335;52.288;6.056;2024-03-07T11:36:42;18.65;;;7.63;;
69750;SDS011;57335;52.288;6.056;2024-03-07T11:44:45;20.95;;;9.07;;
69750;SDS011;57335;52.288;6.056;2024-03-07T11:47:12;24.98;;;10.43;;
69750;SDS011;57335;52.288;6.056;2024-03-07T11:49:39;22.02;;;8.88;;
69750;SDS011;57335;52.288;6.056;2024-03-07T11:52:06;22.63;;;9.43;;
69750;SDS011;57335;52.288;6.056;2024-03-07T11:54:39;22.55;;;9.65;;
69750;SDS011;57335;52.288;6.056;2024-03-07T11:57:12;27.73;;;11.23;;
69750;SDS011;57335;52.288;6.056;2024-03-07T11:59:41;26.63;;;10.35;;
69750;SDS011;57335;52.288;6.056;2024-03-07T12:02:12;20.92;;;8.70;;
69750;SDS011;57335;52.288;6.056;2024-03-07T12:04:41;22.15;;;9.48;;
69750;SDS011;57335;52.288;6.056;2024-03-07T12:07:08;19.50;;;7.40;;
69750;SDS011;57335;52.288;6.056;2024-03-07T12:09:37;22.02;;;8.38;;
69750;SDS011;57335;52.288;6.056;2024-03-07T12:12:05;23.67;;;9.73;;
69750;SDS011;57335;52.288;6.056;2024-03-07T12:14:32;19.30;;;7.72;;
69750;SDS011;57335;52.288;6.056;2024-03-07T12:17:03;15.63;;;7.03;;
69750;SDS011;57335;52.288;6.056;2024-03-07T12:19:33;21.67;;;8.02;;
69750;SDS011;57335;52.288;6.056;2024-03-07T12:22:00;18.48;;;7.63;;
69750;SDS011;57335;52.288;6.056;2024-03-07T12:24:29;19.17;;;7.68;;
69750;SDS011;57335;52.288;6.056;2024-03-07T12:27:09;23.10;;;9.75;;
69750;SDS011;57335;52.288;6.056;2024-03-07T12:29:38;16.80;;;6.05;;
69750;SDS011;57335;52.288;6.056;2024-03-07T12:32:06;19.13;;;7.88;;
69750;SDS011;57335;52.288;6.056;2024-03-07T12:34:52;16.90;;;7.45;;
69750;SDS011;57335;52.288;6.056;2024-03-07T12:37:19;18.88;;;7.70;;
69750;SDS011;57335;52.288;6.056;2024-03-07T12:39:53;21.60;;;9.35;;
69750;SDS011;57335;52.288;6.056;2024-03-07T12:42:28;14.75;;;6.00;;
69750;SDS011;57335;52.288;6.056;2024-03-07T12:44:57;19.77;;;7.85;;
69750;SDS011;57335;52.288;6.056;2024-03-07T12:47:26;16.58;;;7.00;;
69750;SDS011;57335;52.288;6.056;2024-03-07T12:49:52;19.35;;;8.68;;
69750;SDS011;57335;52.288;6.056;2024-03-07T12:52:19;16.70;;;6.57;;
69750;SDS011;57335;52.288;6.056;2024-03-07T12:54:45;20.73;;;7.15;;
69750;SDS011;57335;52.288;6.056;2024-03-07T12:57:14;15.20;;;6.72;;
69750;SDS011;57335;52.288;6.056;2024-03-07T12:59:41;15.82;;;6.10;;
69750;SDS011;57335;52.288;6.056;2024-03-07T13:02:11;18.88;;;7.70;;
69750;SDS011;57335;52.288;6.056;2024-03-07T13:04:38;16.77;;;7.75;;
69750;SDS011;57335;52.288;6.056;2024-03-07T13:07:09;15.07;;;6.35;;
69750;SDS011;57335;52.288;6.056;2024-03-07T13:09:36;13.20;;;5.30;;
69750;SDS011;57335;52.288;6.056;2024-03-07T13:12:04;18.92;;;8.15;;
69750;SDS011;57335;52.288;6.056;2024-03-07T13:14:35;13.50;;;5.65;;
69750;SDS011;57335;52.288;6.056;2024-03-07T13:17:02;16.60;;;6.93;;
69750;SDS011;57335;52.288;6.056;2024-03-07T13:19:30;18.95;;;8.63;;
69750;SDS011;57335;52.288;6.056;2024-03-07T13:21:58;18.73;;;7.75;;
69750;SDS011;57335;52.288;6.056;2024-03-07T13:24:25;17.20;;;7.65;;
69750;SDS011;57335;52.288;6.056;2024-03-07T13:26:54;13.48;;;5.45;;
69750;SDS011;57335;52.288;6.056;2024-03-07T13:29:20;16.98;;;6.35;;
69750;SDS011;57335;52.288;6.056;2024-03-07T13:31:51;13.88;;;5.43;;
69750;SDS011;57335;52.288;6.056;2024-03-07T13:34:18;16.90;;;6.88;;
69750;SDS011;57335;52.288;6.056;2024-03-07T13:36:45;13.80;;;5.13;;
69750;SDS011;57335;52.288;6.056;2024-03-07T13:39:12;18.10;;;7.70;;
69750;SDS011;57335;52.288;6.056;2024-03-07T13:41:40;20.80;;;8.55;;
69750;SDS011;57335;52.288;6.056;2024-03-07T13:44:08;13.95;;;6.45;;
69750;SDS011;57335;52.288;6.056;2024-03-07T13:46:34;16.60;;;6.28;;
69750;SDS011;57335;52.288;6.056;2024-03-07T13:49:01;16.33;;;6.97;;
69750;SDS011;57335;52.288;6.056;2024-03-07T13:51:54;14.73;;;6.00;;
69750;SDS011;57335;52.288;6.056;2024-03-07T13:54:29;13.07;;;5.72;;
69750;SDS011;57335;52.288;6.056;2024-03-07T13:57:05;15.00;;;5.68;;
69750;SDS011;57335;52.288;6.056;2024-03-07T13:59:46;15.73;;;6.40;;
69750;SDS011;57335;52.288;6.056;2024-03-07T14:10:44;11.63;;;5.15;;
69750;SDS011;57335;52.288;6.056;2024-03-07T14:13:47;12.23;;;5.20;;
69750;SDS011;57335;52.288;6.056;2024-03-07T14:16:34;16.10;;;6.68;;
69750;SDS011;57335;52.288;6.056;2024-03-07T14:25:19;16.40;;;6.32;;
69750;SDS011;57335;52.288;6.056;2024-03-07T14:28:26;17.15;;;6.53;;
69750;SDS011;57335;52.288;6.056;2024-03-07T14:31:12;15.82;;;6.90;;
69750;SDS011;57335;52.288;6.056;2024-03-07T14:36:37;16.10;;;5.30;;
69750;SDS011;57335;52.288;6.056;2024-03-07T14:39:07;14.98;;;5.88;;
69750;SDS011;57335;52.288;6.056;2024-03-07T14:41:50;15.80;;;6.53;;
69750;SDS011;57335;52.288;6.056;2024-03-07T14:44:21;18.35;;;5.93;;
69750;SDS011;57335;52.288;6.056;2024-03-07T14:46:52;19.88;;;7.80;;
69750;SDS011;57335;52.288;6.056;2024-03-07T14:49:21;18.35;;;6.75;;
69750;SDS011;57335;52.288;6.056;2024-03-07T14:51:49;17.90;;;6.55;;
69750;SDS011;57335;52.288;6.056;2024-03-07T14:54:26;17.35;;;6.20;;
69750;SDS011;57335;52.288;6.056;2024-03-07T14:56:53;19.58;;;7.28;;
69750;SDS011;57335;52.288;6.056;2024-03-07T14:59:20;17.25;;;5.78;;
69750;SDS011;57335;52.288;6.056;2024-03-07T15:01:47;18.20;;;7.03;;
69750;SDS011;57335;52.288;6.056;2024-03-07T15:04:14;20.75;;;8.18;;
69750;SDS011;57335;52.288;6.056;2024-03-07T15:06:41;17.60;;;7.18;;
69750;SDS011;57335;52.288;6.056;2024-03-07T15:09:12;22.33;;;7.15;;
69750;SDS011;57335;52.288;6.056;2024-03-07T15:11:40;21.33;;;8.43;;
69750;SDS011;57335;52.288;6.056;2024-03-07T15:14:07;17.75;;;6.93;;
69750;SDS011;57335;52.288;6.056;2024-03-07T15:16:37;15.60;;;6.53;;
69750;SDS011;57335;52.288;6.056;2024-03-07T15:19:05;18.67;;;6.63;;
69750;SDS011;57335;52.288;6.056;2024-03-07T15:21:38;21.92;;;8.50;;